createdAt,value
2023-01-26T00:01:17.626Z,2.35
2023-01-26T00:03:44.920Z,2.58
2023-01-26T00:06:14.294Z,2.10
2023-01-26T00:08:43.193Z,2.30
2023-01-26T00:11:12.344Z,2.33
2023-01-26T00:13:39.031Z,2.75
2023-01-26T00:16:10.261Z,3.08
2023-01-26T00:18:38.501Z,2.30
2023-01-26T00:21:05.853Z,2.40
2023-01-26T00:23:34.437Z,2.38
2023-01-26T00:26:01.905Z,2.45
2023-01-26T00:28:29.017Z,2.42
2023-01-26T00:31:06.367Z,2.20
2023-01-26T00:33:33.170Z,2.00
2023-01-26T00:36:00.401Z,2.20
2023-01-26T00:38:27.220Z,2.30
2023-01-26T00:40:54.103Z,2.30
2023-01-26T00:43:20.897Z,2.30
2023-01-26T00:45:47.823Z,2.20
2023-01-26T00:48:14.550Z,2.00
2023-01-26T00:50:41.260Z,2.33
2023-01-26T00:53:09.849Z,2.38
2023-01-26T00:55:36.971Z,2.10
2023-01-26T00:58:06.253Z,2.08
2023-01-26T01:00:35.527Z,2.42
2023-01-26T01:03:05.169Z,2.30
2023-01-26T01:05:33.200Z,1.98
2023-01-26T01:07:59.927Z,2.05
2023-01-26T01:10:28.327Z,2.00
2023-01-26T01:12:56.448Z,2.00
2023-01-26T01:15:23.813Z,1.85
2023-01-26T01:17:50.747Z,2.28
2023-01-26T01:20:17.712Z,2.35
2023-01-26T01:22:46.605Z,2.08
2023-01-26T01:25:13.861Z,1.80
2023-01-26T01:27:40.577Z,2.03
2023-01-26T01:30:08.532Z,2.17
2023-01-26T01:32:39.891Z,2.08
2023-01-26T01:35:07.615Z,2.15
2023-01-26T01:37:34.687Z,2.03
2023-01-26T01:40:01.342Z,2.25
2023-01-26T01:42:28.292Z,2.30
2023-01-26T01:45:22.847Z,1.85
2023-01-26T01:47:50.098Z,2.17
2023-01-26T01:50:18.217Z,2.75
2023-01-26T01:52:45.607Z,2.30
2023-01-26T01:55:15.316Z,2.22
2023-01-26T01:57:58.891Z,1.90
2023-01-26T02:00:27.069Z,2.10
2023-01-26T02:03:21.168Z,2.58
2023-01-26T02:06:02.751Z,2.33
2023-01-26T02:08:43.881Z,1.90
2023-01-26T02:11:17.170Z,2.10
2023-01-26T02:13:47.059Z,2.05
2023-01-26T02:16:13.811Z,2.00
2023-01-26T02:18:41.486Z,2.40
2023-01-26T02:21:11.324Z,2.08
2023-01-26T02:23:57.319Z,2.03
2023-01-26T02:26:27.476Z,2.13
2023-01-26T02:28:55.208Z,1.98
2023-01-26T02:31:24.069Z,1.88
2023-01-26T02:33:51.223Z,1.83
2023-01-26T02:36:24.103Z,2.10
2023-01-26T02:39:14.424Z,2.10
2023-01-26T02:42:00.111Z,2.00
2023-01-26T02:44:29.139Z,1.90
2023-01-26T02:46:56.319Z,1.63
2023-01-26T02:49:41.648Z,1.70
2023-01-26T02:52:08.667Z,1.70
2023-01-26T02:54:54.288Z,1.60
2023-01-26T02:57:20.979Z,2.10
2023-01-26T02:59:47.787Z,1.92
2023-01-26T03:02:14.527Z,1.70
2023-01-26T03:04:42.183Z,1.83
2023-01-26T03:07:08.961Z,1.70
2023-01-26T03:09:35.641Z,2.08
2023-01-26T03:12:03.055Z,1.70
2023-01-26T03:14:30.529Z,1.70
2023-01-26T03:16:57.209Z,1.77
2023-01-26T03:19:42.592Z,1.70
2023-01-26T03:22:29.616Z,1.52
2023-01-26T03:25:15.501Z,2.03
2023-01-26T03:27:46.267Z,2.30
2023-01-26T03:30:19.239Z,1.75
2023-01-26T03:32:47.835Z,1.98
2023-01-26T03:35:22.415Z,1.90
2023-01-26T03:37:54.751Z,1.98
2023-01-26T03:40:57.136Z,2.65
2023-01-26T03:43:42.639Z,1.90
2023-01-26T03:46:28.672Z,1.75
2023-01-26T03:49:14.026Z,1.70
2023-01-26T03:51:59.250Z,2.00
2023-01-26T03:54:44.461Z,2.25
2023-01-26T03:57:11.362Z,2.20
2023-01-26T03:59:38.458Z,1.95
2023-01-26T04:02:29.714Z,1.70
2023-01-26T04:05:15.250Z,2.08
2023-01-26T04:08:04.678Z,1.58
2023-01-26T04:10:31.447Z,1.98
2023-01-26T04:13:18.328Z,1.73
2023-01-26T04:16:08.775Z,1.90
2023-01-26T04:18:55.084Z,1.85
2023-01-26T04:21:31.693Z,1.90
2023-01-26T04:24:00.521Z,1.92
2023-01-26T04:26:34.724Z,1.95
2023-01-26T04:29:11.134Z,1.80
2023-01-26T04:31:39.074Z,1.70
2023-01-26T04:34:10.231Z,2.03
2023-01-26T04:36:38.618Z,1.70
2023-01-26T04:39:05.751Z,1.63
2023-01-26T04:41:34.101Z,1.80
2023-01-26T04:44:10.280Z,1.92
2023-01-26T04:46:37.745Z,1.90
2023-01-26T04:49:04.979Z,1.85
2023-01-26T04:51:33.491Z,1.92
2023-01-26T04:54:00.388Z,1.85
2023-01-26T04:56:30.198Z,1.92
2023-01-26T04:59:00.703Z,1.70
2023-01-26T05:01:28.094Z,1.73
2023-01-26T05:03:55.264Z,1.83
2023-01-26T05:06:23.135Z,2.10
2023-01-26T05:08:50.639Z,1.83
2023-01-26T05:11:18.059Z,1.95
2023-01-26T05:13:51.867Z,1.73
2023-01-26T05:16:41.735Z,1.88
2023-01-26T05:19:21.746Z,1.85
2023-01-26T05:22:17.377Z,2.13
2023-01-26T05:25:04.460Z,2.10
2023-01-26T05:27:39.188Z,1.73
2023-01-26T05:30:06.308Z,1.55
2023-01-26T05:32:35.468Z,1.65
2023-01-26T05:35:02.675Z,2.15
2023-01-26T05:37:30.869Z,1.63
2023-01-26T05:39:58.273Z,1.70
2023-01-26T05:42:26.390Z,2.00
2023-01-26T05:45:07.469Z,1.55
2023-01-26T05:47:35.956Z,1.58
2023-01-26T05:50:02.802Z,2.10
2023-01-26T05:52:31.860Z,1.95
2023-01-26T05:54:59.467Z,1.70
2023-01-26T05:57:26.203Z,1.48
2023-01-26T05:59:57.950Z,1.65
2023-01-26T06:02:27.236Z,1.65
2023-01-26T06:04:54.088Z,1.55
2023-01-26T06:07:20.965Z,1.40
2023-01-26T06:10:05.801Z,1.50
2023-01-26T06:12:42.988Z,1.50
2023-01-26T06:15:20.541Z,1.42
2023-01-26T06:17:48.749Z,1.38
2023-01-26T06:20:17.255Z,1.10
2023-01-26T06:22:52.938Z,1.55
2023-01-26T06:25:20.136Z,1.27
2023-01-26T06:27:46.913Z,1.20
2023-01-26T06:30:21.265Z,1.30
2023-01-26T06:32:48.823Z,1.27
2023-01-26T06:35:17.128Z,1.15
2023-01-26T06:37:45.394Z,1.10
2023-01-26T06:40:12.978Z,0.98
2023-01-26T06:42:40.246Z,1.40
2023-01-26T06:45:08.143Z,1.05
2023-01-26T06:47:36.060Z,1.23
2023-01-26T06:50:04.448Z,1.00
2023-01-26T06:52:35.588Z,1.38
2023-01-26T06:55:17.407Z,1.30
2023-01-26T06:57:49.889Z,1.10
2023-01-26T07:00:56.679Z,1.00
2023-01-26T07:03:32.863Z,1.00
2023-01-26T07:05:59.524Z,1.17
2023-01-26T07:08:26.156Z,1.00
2023-01-26T07:10:52.810Z,1.20
2023-01-26T07:13:20.029Z,1.17
2023-01-26T07:15:46.689Z,1.40
2023-01-26T07:18:13.333Z,1.20
2023-01-26T07:20:39.989Z,1.35
2023-01-26T07:23:06.625Z,1.17
2023-01-26T07:25:33.293Z,1.30
2023-01-26T07:27:59.981Z,1.38
2023-01-26T07:30:27.233Z,1.20
2023-01-26T07:32:53.901Z,1.35
2023-01-26T07:35:20.590Z,1.17
2023-01-26T07:37:47.291Z,1.30
2023-01-26T07:40:14.243Z,1.40
2023-01-26T07:42:41.033Z,1.40
2023-01-26T07:45:18.388Z,1.30
2023-01-26T07:47:45.032Z,1.30
2023-01-26T07:50:12.188Z,1.20
2023-01-26T07:52:39.044Z,1.10
2023-01-26T07:55:06.057Z,1.15
2023-01-26T07:57:34.236Z,1.27
2023-01-26T08:00:00.905Z,1.10
2023-01-26T08:02:27.590Z,1.33
2023-01-26T08:04:54.256Z,1.30
2023-01-26T08:07:20.917Z,1.40
2023-01-26T08:09:47.702Z,1.50
2023-01-26T08:12:14.378Z,1.45
2023-01-26T08:14:47.182Z,1.20
2023-01-26T08:17:15.445Z,1.30
2023-01-26T08:19:42.093Z,1.60
2023-01-26T08:22:08.749Z,1.23
2023-01-26T08:24:35.403Z,1.58
2023-01-26T08:27:02.118Z,1.50
2023-01-26T08:29:28.802Z,1.83
2023-01-26T08:31:55.536Z,1.73
2023-01-26T08:34:26.508Z,2.17
2023-01-26T08:36:53.154Z,1.70
2023-01-26T08:39:19.831Z,1.60
2023-01-26T08:41:47.379Z,1.40
2023-01-26T08:44:14.005Z,1.52
2023-01-26T08:46:40.669Z,2.00
2023-01-26T08:49:07.407Z,1.75
2023-01-26T08:51:34.080Z,1.92
2023-01-26T08:54:00.961Z,1.50
2023-01-26T08:56:28.019Z,1.85
2023-01-26T08:58:55.169Z,1.85
2023-01-26T09:01:22.174Z,1.50
2023-01-26T09:03:51.405Z,1.50
2023-01-26T09:06:18.578Z,1.60
2023-01-26T09:08:45.822Z,1.70
2023-01-26T09:11:13.064Z,2.25
2023-01-26T09:13:40.484Z,1.60
2023-01-26T09:16:13.174Z,1.45
2023-01-26T09:18:40.380Z,1.42
2023-01-26T09:21:09.147Z,1.40
2023-01-26T09:23:36.801Z,1.30
2023-01-26T09:26:04.294Z,1.38
2023-01-26T09:28:31.533Z,1.23
2023-01-26T09:31:04.319Z,1.10
2023-01-26T09:33:31.662Z,1.30
2023-01-26T09:36:07.616Z,1.30
2023-01-26T09:38:34.990Z,1.15
2023-01-26T09:41:05.077Z,1.02
2023-01-26T09:43:44.430Z,1.10
2023-01-26T09:46:32.473Z,1.30
2023-01-26T09:49:24.338Z,1.00
2023-01-26T09:52:31.175Z,0.80
2023-01-26T09:55:01.072Z,1.00
2023-01-26T09:57:41.128Z,1.10
2023-01-26T10:00:19.236Z,1.17
2023-01-26T10:03:20.689Z,1.10
2023-01-26T10:06:06.583Z,1.15
2023-01-26T10:08:52.485Z,1.30
2023-01-26T10:11:27.401Z,1.30
2023-01-26T10:14:01.940Z,1.23
2023-01-26T10:16:29.276Z,1.00
2023-01-26T10:19:06.572Z,1.30
2023-01-26T10:21:40.177Z,1.60
2023-01-26T10:24:11.184Z,1.30
2023-01-26T10:26:38.473Z,1.20
2023-01-26T10:29:06.288Z,1.67
2023-01-26T10:31:34.601Z,1.15
2023-01-26T10:34:26.542Z,1.45
2023-01-26T10:37:02.181Z,1.40
2023-01-26T10:39:30.667Z,1.63
2023-01-26T10:42:00.514Z,1.58
2023-01-26T10:44:38.001Z,1.42
2023-01-26T10:47:19.811Z,2.00
2023-01-26T10:49:47.123Z,1.60
2023-01-26T10:52:18.500Z,1.77
2023-01-26T10:54:46.370Z,1.48
2023-01-26T10:57:18.729Z,1.42
2023-01-26T10:59:59.094Z,1.65
2023-01-26T11:02:31.312Z,1.80
2023-01-26T11:05:23.885Z,1.48
2023-01-26T11:08:11.628Z,2.00
2023-01-26T11:10:53.760Z,1.70
2023-01-26T11:13:22.045Z,1.90
2023-01-26T11:16:20.111Z,1.70
2023-01-26T11:19:03.208Z,1.80
2023-01-26T11:21:43.259Z,1.35
2023-01-26T11:24:34.568Z,1.50
2023-01-26T11:27:30.039Z,1.77
2023-01-26T11:30:26.619Z,1.60
2023-01-26T11:33:05.362Z,2.00
2023-01-26T11:35:50.218Z,1.90
2023-01-26T11:38:23.403Z,1.95
2023-01-26T11:41:12.397Z,2.05
2023-01-26T11:43:55.087Z,2.10
2023-01-26T11:46:30.738Z,2.20
2023-01-26T11:49:10.574Z,1.90
2023-01-26T11:51:43.553Z,2.00
2023-01-26T11:54:10.509Z,2.13
2023-01-26T11:56:55.177Z,2.30
2023-01-26T11:59:40.231Z,1.75
2023-01-26T12:02:33.301Z,1.80
2023-01-26T12:05:11.287Z,1.98
2023-01-26T12:07:55.801Z,2.15
2023-01-26T12:10:47.989Z,2.20
2023-01-26T12:13:38.282Z,2.10
2023-01-26T12:16:16.357Z,1.90
2023-01-26T12:19:09.233Z,1.90
2023-01-26T12:21:42.880Z,1.85
2023-01-26T12:24:43.521Z,2.10
2023-01-26T12:27:08.802Z,1.90
2023-01-26T12:29:52.027Z,2.15
2023-01-26T12:32:19.297Z,2.60
2023-01-26T12:34:46.629Z,2.67
2023-01-26T12:37:36.437Z,2.30
2023-01-26T12:40:29.270Z,2.60
2023-01-26T12:43:24.383Z,2.60
2023-01-26T12:45:55.753Z,3.30
2023-01-26T12:48:38.021Z,3.30
2023-01-26T12:51:29.971Z,2.75
2023-01-26T12:54:18.433Z,2.70
2023-01-26T12:56:51.202Z,2.90
2023-01-26T12:59:39.489Z,3.50
2023-01-26T13:02:29.101Z,2.70
2023-01-26T13:04:59.024Z,3.10
2023-01-26T13:07:31.083Z,3.40
2023-01-26T13:10:19.581Z,2.95
2023-01-26T13:12:58.592Z,3.45
2023-01-26T13:15:31.649Z,2.92
2023-01-26T13:18:04.329Z,3.00
2023-01-26T13:20:40.612Z,3.10
2023-01-26T13:26:41.565Z,3.10
2023-01-26T13:29:28.262Z,3.08
2023-01-26T13:34:43.045Z,3.33
2023-01-26T13:37:21.755Z,3.10
2023-01-26T13:39:54.173Z,3.50
2023-01-26T13:42:27.077Z,3.50
2023-01-26T13:45:01.859Z,2.90
2023-01-26T13:47:41.172Z,3.65
2023-01-26T13:50:29.721Z,3.65
2023-01-26T13:52:56.600Z,3.97
2023-01-26T13:55:29.419Z,3.67
2023-01-26T13:58:11.490Z,3.85
2023-01-26T14:00:38.325Z,3.35
2023-01-26T14:03:05.263Z,3.70
2023-01-26T14:05:32.669Z,3.50
2023-01-26T14:08:00.081Z,3.70
2023-01-26T14:10:27.853Z,3.80
2023-01-26T14:12:57.179Z,3.55
2023-01-26T14:15:30.655Z,4.15
2023-01-26T14:18:00.550Z,3.67
2023-01-26T14:20:30.569Z,3.80
2023-01-26T14:23:15.950Z,3.72
2023-01-26T14:25:48.624Z,3.85
2023-01-26T14:28:20.904Z,3.53
2023-01-26T14:31:01.580Z,4.20
2023-01-26T14:33:29.336Z,3.58
2023-01-26T14:36:02.407Z,4.00
2023-01-26T14:38:39.195Z,3.60
2023-01-26T14:41:18.550Z,4.47
2023-01-26T14:43:45.596Z,4.05
2023-01-26T14:46:44.585Z,3.80
2023-01-26T14:49:16.741Z,4.03
2023-01-26T14:51:45.744Z,3.92
2023-01-26T14:54:21.372Z,4.28
2023-01-26T14:56:49.139Z,3.53
2023-01-26T14:59:34.105Z,3.53
2023-01-26T15:02:17.075Z,3.90
2023-01-26T15:04:57.998Z,4.07
2023-01-26T15:07:35.225Z,4.00
2023-01-26T15:10:23.353Z,3.38
2023-01-26T15:13:10.460Z,3.63
2023-01-26T15:15:43.227Z,4.00
2023-01-26T15:18:13.263Z,3.50
2023-01-26T15:20:41.930Z,3.60
2023-01-26T15:23:41.037Z,3.78
2023-01-26T15:26:09.230Z,3.78
2023-01-26T15:28:38.713Z,3.20
2023-01-26T15:31:06.586Z,3.75
2023-01-26T15:33:39.678Z,5.28
2023-01-26T15:36:20.643Z,10.73
2023-01-26T15:38:48.018Z,24.35
2023-01-26T15:41:15.459Z,37.67
2023-01-26T15:43:42.625Z,39.25
2023-01-26T15:46:10.609Z,53.78
2023-01-26T15:48:37.836Z,54.90
2023-01-26T15:51:10.913Z,53.25
2023-01-26T15:53:38.064Z,49.33
2023-01-26T15:56:05.421Z,51.50
2023-01-26T15:58:34.939Z,47.13
2023-01-26T16:01:02.128Z,38.28
2023-01-26T16:03:29.244Z,36.63
2023-01-26T16:05:56.285Z,34.92
2023-01-26T16:08:23.421Z,28.60
2023-01-26T16:10:50.777Z,30.42
2023-01-26T16:13:18.921Z,25.08
2023-01-26T16:15:53.926Z,24.38
2023-01-26T16:18:21.443Z,22.50
2023-01-26T16:20:49.629Z,20.85
2023-01-26T16:23:26.101Z,20.52
2023-01-26T16:25:53.776Z,17.65
2023-01-26T16:28:21.223Z,17.80
2023-01-26T16:30:50.892Z,14.98
2023-01-26T16:33:24.590Z,15.35
2023-01-26T16:35:52.008Z,13.88
2023-01-26T16:38:19.065Z,12.75
2023-01-26T16:40:48.325Z,12.77
2023-01-26T16:43:23.306Z,11.75
2023-01-26T16:45:51.088Z,10.03
2023-01-26T16:48:18.709Z,9.65
2023-01-26T16:50:45.983Z,10.50
2023-01-26T16:53:31.315Z,9.20
2023-01-26T16:55:58.773Z,8.77
2023-01-26T16:58:30.746Z,8.18
2023-01-26T17:00:57.941Z,8.88
2023-01-26T17:03:25.686Z,8.73
2023-01-26T17:05:56.002Z,8.45
2023-01-26T17:08:23.740Z,7.57
2023-01-26T17:11:01.670Z,7.13
2023-01-26T17:13:29.833Z,6.97
2023-01-26T17:15:57.792Z,6.82
2023-01-26T17:18:25.151Z,7.15
2023-01-26T17:20:52.306Z,6.53
2023-01-26T17:23:19.340Z,6.70
2023-01-26T17:25:46.491Z,6.47
2023-01-26T17:28:13.456Z,6.72
2023-01-26T17:30:40.413Z,5.93
2023-01-26T17:33:07.428Z,6.50
2023-01-26T17:35:34.700Z,5.90
2023-01-26T17:38:01.844Z,5.95
2023-01-26T17:40:28.982Z,5.47
2023-01-26T17:42:56.234Z,6.45
2023-01-26T17:45:23.482Z,5.47
2023-01-26T17:47:50.654Z,5.97
2023-01-26T17:50:17.708Z,5.57
2023-01-26T17:52:44.650Z,5.47
2023-01-26T17:55:12.324Z,5.25
2023-01-26T17:57:39.543Z,5.35
2023-01-26T18:00:07.329Z,5.10
2023-01-26T18:02:37.587Z,5.00
2023-01-26T18:05:05.107Z,4.88
2023-01-26T18:07:32.236Z,4.90
2023-01-26T18:09:59.428Z,4.65
2023-01-26T18:12:26.698Z,4.97
2023-01-26T18:14:55.122Z,4.43
2023-01-26T18:17:22.256Z,4.40
2023-01-26T18:19:48.931Z,4.70
2023-01-26T18:22:15.611Z,5.07
2023-01-26T18:24:42.313Z,4.68
2023-01-26T18:27:08.993Z,4.88
2023-01-26T18:29:35.648Z,4.85
2023-01-26T18:32:02.367Z,4.63
2023-01-26T18:34:29.136Z,4.75
2023-01-26T18:36:56.023Z,4.70
2023-01-26T18:39:22.661Z,4.68
2023-01-26T18:41:49.363Z,4.40
2023-01-26T18:44:16.095Z,4.18
2023-01-26T18:46:42.749Z,4.10
2023-01-26T18:49:10.411Z,4.50
2023-01-26T18:51:37.222Z,4.22
2023-01-26T18:54:05.601Z,4.57
2023-01-26T18:56:32.774Z,4.65
2023-01-26T18:58:59.600Z,4.18
2023-01-26T19:01:26.771Z,4.65
2023-01-26T19:03:57.617Z,4.00
2023-01-26T19:06:25.929Z,4.40
2023-01-26T19:09:04.515Z,3.85
2023-01-26T19:11:33.628Z,4.03
2023-01-26T19:14:01.544Z,4.20
2023-01-26T19:16:29.346Z,4.25
2023-01-26T19:18:56.676Z,3.80
2023-01-26T19:21:25.382Z,3.90
2023-01-26T19:23:53.975Z,4.20
2023-01-26T19:26:24.701Z,4.38
2023-01-26T19:28:51.596Z,4.97
2023-01-26T19:31:19.657Z,4.20
2023-01-26T19:33:54.402Z,4.40
2023-01-26T19:36:21.945Z,4.45
2023-01-26T19:38:48.703Z,4.28
2023-01-26T19:41:15.873Z,4.20
2023-01-26T19:43:42.750Z,4.43
2023-01-26T19:46:11.753Z,4.55
2023-01-26T19:48:39.060Z,4.65
2023-01-26T19:51:10.223Z,4.70
2023-01-26T19:53:40.286Z,4.65
2023-01-26T19:56:10.115Z,4.35
2023-01-26T19:58:37.393Z,4.70
2023-01-26T20:01:10.607Z,4.63
2023-01-26T20:03:38.037Z,4.45
2023-01-26T20:06:05.989Z,4.68
2023-01-26T20:08:33.326Z,4.78
2023-01-26T20:11:06.804Z,4.57
2023-01-26T20:13:33.999Z,4.45
2023-01-26T20:16:01.455Z,5.07
2023-01-26T20:18:28.178Z,4.40
2023-01-26T20:20:55.946Z,4.45
2023-01-26T20:23:23.675Z,4.45
2023-01-26T20:25:51.612Z,4.53
2023-01-26T20:28:19.008Z,4.50
2023-01-26T20:30:46.147Z,4.55
2023-01-26T20:33:12.870Z,5.00
2023-01-26T20:35:40.430Z,4.95
2023-01-26T20:38:07.152Z,4.57
2023-01-26T20:40:33.836Z,4.47
2023-01-26T20:43:00.768Z,4.97
2023-01-26T20:45:27.407Z,5.15
2023-01-26T20:47:54.264Z,4.82
2023-01-26T20:50:21.179Z,4.95
2023-01-26T20:52:48.520Z,4.70
2023-01-26T20:55:15.486Z,4.72
2023-01-26T20:57:42.736Z,4.68
2023-01-26T21:00:11.039Z,4.75
2023-01-26T21:02:38.364Z,5.18
2023-01-26T21:05:07.270Z,4.53
2023-01-26T21:07:34.424Z,4.65
2023-01-26T21:10:01.365Z,4.70
2023-01-26T21:12:28.420Z,4.57
2023-01-26T21:14:55.361Z,4.25
2023-01-26T21:17:23.014Z,4.70
2023-01-26T21:19:50.088Z,4.43
2023-01-26T21:22:17.118Z,4.55
2023-01-26T21:24:44.660Z,4.50
2023-01-26T21:27:12.330Z,4.10
2023-01-26T21:29:42.241Z,4.60
2023-01-26T21:32:09.400Z,5.00
2023-01-26T21:34:36.445Z,4.78
2023-01-26T21:37:03.582Z,4.90
2023-01-26T21:39:30.735Z,4.32
2023-01-26T21:41:59.055Z,4.57
2023-01-26T21:44:28.643Z,4.80
2023-01-26T21:46:59.455Z,4.78
2023-01-26T21:49:28.474Z,4.63
2023-01-26T21:52:14.964Z,4.60
2023-01-26T21:54:42.019Z,5.03
2023-01-26T21:57:40.485Z,4.70
2023-01-26T22:00:07.936Z,5.03
2023-01-26T22:02:34.596Z,4.82
2023-01-26T22:05:01.653Z,5.03
2023-01-26T22:07:29.904Z,4.88
2023-01-26T22:09:56.962Z,4.53
2023-01-26T22:12:24.116Z,4.60
2023-01-26T22:14:52.187Z,4.97
2023-01-26T22:17:19.323Z,5.18
2023-01-26T22:19:47.317Z,5.20
2023-01-26T22:22:14.363Z,5.30
2023-01-26T22:24:41.390Z,5.00
2023-01-26T22:27:08.449Z,5.18
2023-01-26T22:29:35.497Z,5.10
2023-01-26T22:32:02.724Z,5.28
2023-01-26T22:34:29.903Z,5.28
2023-01-26T22:36:56.934Z,5.45
2023-01-26T22:39:24.083Z,5.00
2023-01-26T22:41:51.136Z,5.13
2023-01-26T22:44:18.293Z,5.20
2023-01-26T22:46:45.241Z,4.72
2023-01-26T22:49:12.889Z,5.05
2023-01-26T22:51:41.271Z,5.05
2023-01-26T22:54:08.252Z,5.32
2023-01-26T22:56:35.285Z,4.82
2023-01-26T22:59:02.330Z,5.18
2023-01-26T23:01:31.713Z,5.05
2023-01-26T23:04:00.227Z,4.80
2023-01-26T23:06:27.783Z,5.13
2023-01-26T23:08:55.387Z,5.35
2023-01-26T23:11:25.473Z,4.85
2023-01-26T23:13:54.254Z,4.35
2023-01-26T23:16:23.428Z,5.00
2023-01-26T23:18:51.922Z,4.82
2023-01-26T23:21:19.468Z,4.72
2023-01-26T23:23:46.729Z,4.80
2023-01-26T23:26:14.092Z,4.88
2023-01-26T23:28:42.590Z,5.35
2023-01-26T23:31:11.304Z,4.93
2023-01-26T23:33:39.637Z,5.00
2023-01-26T23:36:07.793Z,5.00
2023-01-26T23:38:34.856Z,5.22
2023-01-26T23:41:01.921Z,4.63
2023-01-26T23:43:29.243Z,4.43
2023-01-26T23:45:56.936Z,4.72
2023-01-26T23:48:25.094Z,4.50
2023-01-26T23:50:56.752Z,4.72
2023-01-26T23:53:24.320Z,4.80
2023-01-26T23:55:51.570Z,4.50
2023-01-26T23:58:18.802Z,4.78
